sensor_id;sensor_type;location;lat;lon;timestamp;P1;durP1;ratioP1;P2;durP2;ratioP2
62419;SDS011;48460;51.616;5.426;2022-11-21T00:02:23;20.83;;;6.97;;
62419;SDS011;48460;51.616;5.426;2022-11-21T00:04:48;12.50;;;4.75;;
62419;SDS011;48460;51.616;5.426;2022-11-21T00:07:14;11.05;;;5.10;;
62419;SDS011;48460;51.616;5.426;2022-11-21T00:09:39;20.02;;;5.45;;
62419;SDS011;48460;51.616;5.426;2022-11-21T00:12:05;15.27;;;4.18;;
62419;SDS011;48460;51.616;5.426;2022-11-21T00:14:32;18.35;;;5.05;;
62419;SDS011;48460;51.616;5.426;2022-11-21T00:16:58;12.25;;;4.82;;
62419;SDS011;48460;51.616;5.426;2022-11-21T00:19:23;11.57;;;4.85;;
62419;SDS011;48460;51.616;5.426;2022-11-21T00:21:51;13.10;;;5.00;;
62419;SDS011;48460;51.616;5.426;2022-11-21T00:24:16;22.55;;;6.35;;
62419;SDS011;48460;51.616;5.426;2022-11-21T00:26:44;22.77;;;8.13;;
62419;SDS011;48460;51.616;5.426;2022-11-21T00:29:11;22.05;;;8.93;;
62419;SDS011;48460;51.616;5.426;2022-11-21T00:31:36;29.08;;;12.55;;
62419;SDS011;48460;51.616;5.426;2022-11-21T00:34:01;36.13;;;13.98;;
62419;SDS011;48460;51.616;5.426;2022-11-21T00:36:29;40.67;;;17.15;;
62419;SDS011;48460;51.616;5.426;2022-11-21T00:38:55;46.20;;;18.17;;
62419;SDS011;48460;51.616;5.426;2022-11-21T00:41:20;40.97;;;19.38;;
62419;SDS011;48460;51.616;5.426;2022-11-21T00:43:45;42.28;;;19.50;;
62419;SDS011;48460;51.616;5.426;2022-11-21T00:46:11;39.85;;;20.02;;
62419;SDS011;48460;51.616;5.426;2022-11-21T00:48:36;37.65;;;18.30;;
62419;SDS011;48460;51.616;5.426;2022-11-21T00:51:04;42.20;;;19.17;;
62419;SDS011;48460;51.616;5.426;2022-11-21T00:53:30;39.65;;;19.58;;
62419;SDS011;48460;51.616;5.426;2022-11-21T00:55:58;43.15;;;19.60;;
62419;SDS011;48460;51.616;5.426;2022-11-21T00:58:23;40.05;;;19.15;;
62419;SDS011;48460;51.616;5.426;2022-11-21T01:00:49;45.40;;;20.77;;
62419;SDS011;48460;51.616;5.426;2022-11-21T01:03:14;47.17;;;20.73;;
62419;SDS011;48460;51.616;5.426;2022-11-21T01:05:40;46.00;;;20.27;;
62419;SDS011;48460;51.616;5.426;2022-11-21T01:08:05;43.78;;;19.88;;
62419;SDS011;48460;51.616;5.426;2022-11-21T01:10:32;42.10;;;20.45;;
62419;SDS011;48460;51.616;5.426;2022-11-21T01:12:58;43.78;;;20.33;;
62419;SDS011;48460;51.616;5.426;2022-11-21T01:15:24;49.42;;;19.92;;
62419;SDS011;48460;51.616;5.426;2022-11-21T01:17:49;42.22;;;19.80;;
62419;SDS011;48460;51.616;5.426;2022-11-21T01:20:14;41.67;;;19.35;;
62419;SDS011;48460;51.616;5.426;2022-11-21T01:22:42;42.28;;;19.77;;
62419;SDS011;48460;51.616;5.426;2022-11-21T01:25:11;46.55;;;19.88;;
62419;SDS011;48460;51.616;5.426;2022-11-21T01:27:36;39.53;;;19.05;;
62419;SDS011;48460;51.616;5.426;2022-11-21T01:30:01;42.13;;;20.10;;
62419;SDS011;48460;51.616;5.426;2022-11-21T01:32:27;42.05;;;19.38;;
62419;SDS011;48460;51.616;5.426;2022-11-21T01:34:53;42.58;;;18.83;;
62419;SDS011;48460;51.616;5.426;2022-11-21T01:37:18;43.30;;;20.48;;
62419;SDS011;48460;51.616;5.426;2022-11-21T01:39:43;39.85;;;19.50;;
62419;SDS011;48460;51.616;5.426;2022-11-21T01:42:09;42.85;;;18.40;;
62419;SDS011;48460;51.616;5.426;2022-11-21T01:45:45;52.42;;;20.88;;
62419;SDS011;48460;51.616;5.426;2022-11-21T01:47:50;50.50;;;22.70;;
62419;SDS011;48460;51.616;5.426;2022-11-21T01:50:16;44.28;;;19.70;;
62419;SDS011;48460;51.616;5.426;2022-11-21T01:52:44;50.42;;;20.40;;
62419;SDS011;48460;51.616;5.426;2022-11-21T01:55:09;47.53;;;21.40;;
62419;SDS011;48460;51.616;5.426;2022-11-21T01:57:43;47.88;;;21.42;;
62419;SDS011;48460;51.616;5.426;2022-11-21T02:00:22;54.85;;;21.85;;
62419;SDS011;48460;51.616;5.426;2022-11-21T02:02:58;55.17;;;21.42;;
62419;SDS011;48460;51.616;5.426;2022-11-21T02:05:32;51.50;;;22.70;;
62419;SDS011;48460;51.616;5.426;2022-11-21T02:08:02;52.63;;;21.73;;
62419;SDS011;48460;51.616;5.426;2022-11-21T02:10:34;56.47;;;22.83;;
62419;SDS011;48460;51.616;5.426;2022-11-21T02:13:03;50.67;;;21.35;;
62419;SDS011;48460;51.616;5.426;2022-11-21T02:15:31;56.78;;;22.85;;
62419;SDS011;48460;51.616;5.426;2022-11-21T02:17:56;52.15;;;21.90;;
62419;SDS011;48460;51.616;5.426;2022-11-21T02:20:25;55.67;;;22.40;;
62419;SDS011;48460;51.616;5.426;2022-11-21T02:23:04;47.65;;;21.67;;
62419;SDS011;48460;51.616;5.426;2022-11-21T02:25:40;47.92;;;21.73;;
62419;SDS011;48460;51.616;5.426;2022-11-21T02:28:11;51.95;;;22.52;;
62419;SDS011;48460;51.616;5.426;2022-11-21T02:30:40;51.55;;;22.40;;
62419;SDS011;48460;51.616;5.426;2022-11-21T02:33:06;50.45;;;22.55;;
62419;SDS011;48460;51.616;5.426;2022-11-21T02:35:32;49.92;;;21.60;;
62419;SDS011;48460;51.616;5.426;2022-11-21T02:38:03;56.90;;;22.35;;
62419;SDS011;48460;51.616;5.426;2022-11-21T02:40:38;53.20;;;22.23;;
62419;SDS011;48460;51.616;5.426;2022-11-21T02:43:16;57.78;;;22.13;;
62419;SDS011;48460;51.616;5.426;2022-11-21T02:45:47;52.83;;;22.25;;
62419;SDS011;48460;51.616;5.426;2022-11-21T02:48:15;54.13;;;21.92;;
62419;SDS011;48460;51.616;5.426;2022-11-21T02:50:43;54.30;;;21.27;;
62419;SDS011;48460;51.616;5.426;2022-11-21T02:53:10;58.50;;;22.65;;
62419;SDS011;48460;51.616;5.426;2022-11-21T02:55:37;56.22;;;22.10;;
62419;SDS011;48460;51.616;5.426;2022-11-21T02:58:03;67.53;;;23.60;;
62419;SDS011;48460;51.616;5.426;2022-11-21T03:00:29;62.55;;;22.90;;
62419;SDS011;48460;51.616;5.426;2022-11-21T03:02:54;68.60;;;24.52;;
62419;SDS011;48460;51.616;5.426;2022-11-21T03:05:20;70.07;;;24.40;;
62419;SDS011;48460;51.616;5.426;2022-11-21T03:07:48;69.00;;;23.15;;
62419;SDS011;48460;51.616;5.426;2022-11-21T03:10:14;63.92;;;23.35;;
62419;SDS011;48460;51.616;5.426;2022-11-21T03:12:42;55.35;;;22.25;;
62419;SDS011;48460;51.616;5.426;2022-11-21T03:15:09;57.05;;;22.40;;
62419;SDS011;48460;51.616;5.426;2022-11-21T03:17:38;75.25;;;24.23;;
62419;SDS011;48460;51.616;5.426;2022-11-21T03:20:04;66.18;;;24.83;;
62419;SDS011;48460;51.616;5.426;2022-11-21T03:22:30;55.78;;;22.75;;
62419;SDS011;48460;51.616;5.426;2022-11-21T03:24:56;55.72;;;23.48;;
62419;SDS011;48460;51.616;5.426;2022-11-21T03:27:22;57.00;;;22.73;;
62419;SDS011;48460;51.616;5.426;2022-11-21T03:29:47;58.35;;;22.15;;
62419;SDS011;48460;51.616;5.426;2022-11-21T03:32:13;63.40;;;23.67;;
62419;SDS011;48460;51.616;5.426;2022-11-21T03:34:38;78.57;;;23.02;;
62419;SDS011;48460;51.616;5.426;2022-11-21T03:37:04;69.35;;;23.27;;
62419;SDS011;48460;51.616;5.426;2022-11-21T03:39:29;62.47;;;23.45;;
62419;SDS011;48460;51.616;5.426;2022-11-21T03:41:55;56.58;;;21.40;;
62419;SDS011;48460;51.616;5.426;2022-11-21T03:44:20;55.72;;;21.38;;
62419;SDS011;48460;51.616;5.426;2022-11-21T03:46:46;62.75;;;21.77;;
62419;SDS011;48460;51.616;5.426;2022-11-21T03:49:12;54.35;;;22.70;;
62419;SDS011;48460;51.616;5.426;2022-11-21T03:51:40;63.10;;;23.48;;
62419;SDS011;48460;51.616;5.426;2022-11-21T03:54:07;55.13;;;21.45;;
62419;SDS011;48460;51.616;5.426;2022-11-21T03:56:34;55.03;;;22.33;;
62419;SDS011;48460;51.616;5.426;2022-11-21T03:59:00;60.53;;;23.67;;
62419;SDS011;48460;51.616;5.426;2022-11-21T04:01:26;68.15;;;23.05;;
62419;SDS011;48460;51.616;5.426;2022-11-21T04:03:51;55.50;;;21.20;;
62419;SDS011;48460;51.616;5.426;2022-11-21T04:06:19;55.65;;;22.23;;
62419;SDS011;48460;51.616;5.426;2022-11-21T04:08:46;70.82;;;22.35;;
62419;SDS011;48460;51.616;5.426;2022-11-21T04:11:12;84.15;;;24.73;;
62419;SDS011;48460;51.616;5.426;2022-11-21T04:13:38;69.45;;;21.83;;
62419;SDS011;48460;51.616;5.426;2022-11-21T04:16:06;70.82;;;21.85;;
62419;SDS011;48460;51.616;5.426;2022-11-21T04:18:35;77.53;;;21.98;;
62419;SDS011;48460;51.616;5.426;2022-11-21T04:21:04;80.47;;;21.92;;
62419;SDS011;48460;51.616;5.426;2022-11-21T04:23:31;92.90;;;21.95;;
62419;SDS011;48460;51.616;5.426;2022-11-21T04:25:57;111.20;;;23.13;;
62419;SDS011;48460;51.616;5.426;2022-11-21T04:28:22;113.18;;;23.45;;
62419;SDS011;48460;51.616;5.426;2022-11-21T04:30:48;95.65;;;22.90;;
62419;SDS011;48460;51.616;5.426;2022-11-21T04:33:14;61.15;;;22.90;;
62419;SDS011;48460;51.616;5.426;2022-11-21T04:35:41;97.93;;;23.50;;
62419;SDS011;48460;51.616;5.426;2022-11-21T04:38:08;64.00;;;22.10;;
62419;SDS011;48460;51.616;5.426;2022-11-21T04:40:34;119.70;;;22.25;;
62419;SDS011;48460;51.616;5.426;2022-11-21T04:43:00;101.90;;;22.35;;
62419;SDS011;48460;51.616;5.426;2022-11-21T04:45:25;123.50;;;21.80;;
62419;SDS011;48460;51.616;5.426;2022-11-21T04:47:51;146.65;;;22.20;;
62419;SDS011;48460;51.616;5.426;2022-11-21T04:50:16;65.40;;;21.25;;
62419;SDS011;48460;51.616;5.426;2022-11-21T04:52:49;119.40;;;20.95;;
62419;SDS011;48460;51.616;5.426;2022-11-21T04:55:19;88.13;;;21.98;;
62419;SDS011;48460;51.616;5.426;2022-11-21T04:57:49;111.35;;;21.25;;
62419;SDS011;48460;51.616;5.426;2022-11-21T05:00:16;173.32;;;22.55;;
62419;SDS011;48460;51.616;5.426;2022-11-21T05:02:42;156.20;;;21.52;;
62419;SDS011;48460;51.616;5.426;2022-11-21T05:05:11;120.88;;;19.42;;
62419;SDS011;48460;51.616;5.426;2022-11-21T05:07:36;343.15;;;24.27;;
62419;SDS011;48460;51.616;5.426;2022-11-21T05:10:03;172.63;;;20.90;;
62419;SDS011;48460;51.616;5.426;2022-11-21T05:12:29;163.13;;;20.23;;
62419;SDS011;48460;51.616;5.426;2022-11-21T05:15:14;148.80;;;20.58;;
62419;SDS011;48460;51.616;5.426;2022-11-21T05:17:39;154.55;;;20.30;;
62419;SDS011;48460;51.616;5.426;2022-11-21T05:20:05;361.02;;;22.15;;
62419;SDS011;48460;51.616;5.426;2022-11-21T05:22:30;250.48;;;22.17;;
62419;SDS011;48460;51.616;5.426;2022-11-21T05:24:56;252.38;;;22.50;;
62419;SDS011;48460;51.616;5.426;2022-11-21T05:27:21;349.55;;;23.35;;
62419;SDS011;48460;51.616;5.426;2022-11-21T05:29:47;457.90;;;25.60;;
62419;SDS011;48460;51.616;5.426;2022-11-21T05:32:12;378.63;;;23.38;;
62419;SDS011;48460;51.616;5.426;2022-11-21T05:34:37;281.50;;;19.98;;
62419;SDS011;48460;51.616;5.426;2022-11-21T05:37:04;153.32;;;18.63;;
62419;SDS011;48460;51.616;5.426;2022-11-21T05:39:32;201.80;;;18.35;;
62419;SDS011;48460;51.616;5.426;2022-11-21T05:41:58;228.25;;;19.40;;
62419;SDS011;48460;51.616;5.426;2022-11-21T05:44:23;204.27;;;19.77;;
62419;SDS011;48460;51.616;5.426;2022-11-21T05:46:51;288.83;;;21.52;;
62419;SDS011;48460;51.616;5.426;2022-11-21T05:49:17;97.93;;;18.75;;
62419;SDS011;48460;51.616;5.426;2022-11-21T05:51:43;177.65;;;17.95;;
62419;SDS011;48460;51.616;5.426;2022-11-21T05:54:13;257.23;;;20.20;;
62419;SDS011;48460;51.616;5.426;2022-11-21T05:56:39;176.77;;;18.05;;
62419;SDS011;48460;51.616;5.426;2022-11-21T05:59:05;165.77;;;18.25;;
62419;SDS011;48460;51.616;5.426;2022-11-21T06:01:30;185.15;;;19.90;;
62419;SDS011;48460;51.616;5.426;2022-11-21T06:04:15;133.75;;;19.08;;
62419;SDS011;48460;51.616;5.426;2022-11-21T06:06:40;153.60;;;18.88;;
62419;SDS011;48460;51.616;5.426;2022-11-21T06:09:05;250.93;;;22.40;;
62419;SDS011;48460;51.616;5.426;2022-11-21T06:11:31;159.02;;;18.85;;
62419;SDS011;48460;51.616;5.426;2022-11-21T06:13:56;99.05;;;18.55;;
62419;SDS011;48460;51.616;5.426;2022-11-21T06:16:22;131.70;;;18.88;;
62419;SDS011;48460;51.616;5.426;2022-11-21T06:18:48;110.80;;;17.83;;
62419;SDS011;48460;51.616;5.426;2022-11-21T06:21:17;76.55;;;17.52;;
62419;SDS011;48460;51.616;5.426;2022-11-21T06:23:44;119.13;;;19.02;;
62419;SDS011;48460;51.616;5.426;2022-11-21T06:26:12;140.70;;;21.58;;
62419;SDS011;48460;51.616;5.426;2022-11-21T06:28:39;76.22;;;18.17;;
62419;SDS011;48460;51.616;5.426;2022-11-21T06:31:07;111.28;;;17.40;;
62419;SDS011;48460;51.616;5.426;2022-11-21T06:33:43;152.25;;;20.00;;
62419;SDS011;48460;51.616;5.426;2022-11-21T06:36:11;140.00;;;19.02;;
62419;SDS011;48460;51.616;5.426;2022-11-21T06:38:40;67.75;;;18.27;;
62419;SDS011;48460;51.616;5.426;2022-11-21T06:41:10;62.55;;;19.05;;
62419;SDS011;48460;51.616;5.426;2022-11-21T06:43:36;70.40;;;19.63;;
62419;SDS011;48460;51.616;5.426;2022-11-21T06:46:02;61.67;;;20.70;;
62419;SDS011;48460;51.616;5.426;2022-11-21T06:48:28;60.08;;;20.20;;
62419;SDS011;48460;51.616;5.426;2022-11-21T06:50:57;59.85;;;21.08;;
62419;SDS011;48460;51.616;5.426;2022-11-21T06:53:27;57.95;;;19.92;;
62419;SDS011;48460;51.616;5.426;2022-11-21T06:55:52;88.93;;;22.85;;
62419;SDS011;48460;51.616;5.426;2022-11-21T06:58:18;63.42;;;20.38;;
62419;SDS011;48460;51.616;5.426;2022-11-21T07:00:43;65.78;;;21.17;;
62419;SDS011;48460;51.616;5.426;2022-11-21T07:03:10;58.05;;;20.88;;
62419;SDS011;48460;51.616;5.426;2022-11-21T07:05:35;49.83;;;19.52;;
62419;SDS011;48460;51.616;5.426;2022-11-21T07:08:04;73.80;;;23.52;;
62419;SDS011;48460;51.616;5.426;2022-11-21T07:10:30;65.03;;;22.00;;
62419;SDS011;48460;51.616;5.426;2022-11-21T07:12:56;60.97;;;23.40;;
62419;SDS011;48460;51.616;5.426;2022-11-21T07:15:46;49.80;;;21.15;;
62419;SDS011;48460;51.616;5.426;2022-11-21T07:18:13;54.83;;;21.73;;
62419;SDS011;48460;51.616;5.426;2022-11-21T07:20:39;50.22;;;21.70;;
62419;SDS011;48460;51.616;5.426;2022-11-21T07:23:16;55.97;;;22.40;;
62419;SDS011;48460;51.616;5.426;2022-11-21T07:25:42;47.88;;;20.85;;
62419;SDS011;48460;51.616;5.426;2022-11-21T07:28:15;55.58;;;19.73;;
62419;SDS011;48460;51.616;5.426;2022-11-21T07:30:40;54.63;;;22.27;;
62419;SDS011;48460;51.616;5.426;2022-11-21T07:33:08;49.92;;;20.42;;
62419;SDS011;48460;51.616;5.426;2022-11-21T07:35:34;63.10;;;23.23;;
62419;SDS011;48460;51.616;5.426;2022-11-21T07:38:00;56.08;;;21.65;;
62419;SDS011;48460;51.616;5.426;2022-11-21T07:40:26;55.83;;;23.20;;
62419;SDS011;48460;51.616;5.426;2022-11-21T07:42:53;52.33;;;22.05;;
62419;SDS011;48460;51.616;5.426;2022-11-21T07:45:21;56.72;;;22.15;;
62419;SDS011;48460;51.616;5.426;2022-11-21T07:47:46;65.00;;;24.40;;
62419;SDS011;48460;51.616;5.426;2022-11-21T07:50:20;56.40;;;22.25;;
62419;SDS011;48460;51.616;5.426;2022-11-21T07:52:46;56.95;;;23.08;;
62419;SDS011;48460;51.616;5.426;2022-11-21T07:55:11;56.95;;;21.92;;
62419;SDS011;48460;51.616;5.426;2022-11-21T07:57:36;48.80;;;21.75;;
62419;SDS011;48460;51.616;5.426;2022-11-21T08:00:02;66.07;;;24.55;;
62419;SDS011;48460;51.616;5.426;2022-11-21T08:02:28;59.15;;;23.08;;
62419;SDS011;48460;51.616;5.426;2022-11-21T08:04:53;50.55;;;19.75;;
62419;SDS011;48460;51.616;5.426;2022-11-21T08:07:22;48.72;;;20.30;;
62419;SDS011;48460;51.616;5.426;2022-11-21T08:09:48;49.28;;;21.20;;
62419;SDS011;48460;51.616;5.426;2022-11-21T08:12:16;50.47;;;20.08;;
62419;SDS011;48460;51.616;5.426;2022-11-21T08:14:43;46.10;;;19.27;;
62419;SDS011;48460;51.616;5.426;2022-11-21T08:17:09;43.17;;;19.08;;
62419;SDS011;48460;51.616;5.426;2022-11-21T08:19:35;52.38;;;20.33;;
62419;SDS011;48460;51.616;5.426;2022-11-21T08:22:19;45.25;;;20.70;;
62419;SDS011;48460;51.616;5.426;2022-11-21T08:24:46;44.08;;;18.17;;
62419;SDS011;48460;51.616;5.426;2022-11-21T08:27:13;46.15;;;20.35;;
62419;SDS011;48460;51.616;5.426;2022-11-21T08:29:41;53.08;;;20.77;;
62419;SDS011;48460;51.616;5.426;2022-11-21T08:32:11;49.78;;;21.42;;
62419;SDS011;48460;51.616;5.426;2022-11-21T08:34:38;53.65;;;19.75;;
62419;SDS011;48460;51.616;5.426;2022-11-21T08:37:03;52.47;;;20.88;;
62419;SDS011;48460;51.616;5.426;2022-11-21T08:39:29;37.47;;;17.92;;
62419;SDS011;48460;51.616;5.426;2022-11-21T08:41:57;37.88;;;16.92;;
62419;SDS011;48460;51.616;5.426;2022-11-21T08:44:34;27.45;;;14.68;;
62419;SDS011;48460;51.616;5.426;2022-11-21T08:47:02;31.13;;;13.30;;
62419;SDS011;48460;51.616;5.426;2022-11-21T08:49:29;28.27;;;14.45;;
62419;SDS011;48460;51.616;5.426;2022-11-21T08:51:57;27.15;;;12.45;;
62419;SDS011;48460;51.616;5.426;2022-11-21T08:54:22;26.85;;;12.65;;
62419;SDS011;48460;51.616;5.426;2022-11-21T08:56:49;24.33;;;12.05;;
62419;SDS011;48460;51.616;5.426;2022-11-21T08:59:15;23.13;;;10.73;;
62419;SDS011;48460;51.616;5.426;2022-11-21T09:01:41;22.13;;;9.40;;
62419;SDS011;48460;51.616;5.426;2022-11-21T09:04:08;19.83;;;8.52;;
62419;SDS011;48460;51.616;5.426;2022-11-21T09:06:35;18.73;;;8.13;;
62419;SDS011;48460;51.616;5.426;2022-11-21T09:09:04;17.33;;;7.78;;
62419;SDS011;48460;51.616;5.426;2022-11-21T09:11:31;17.67;;;7.22;;
62419;SDS011;48460;51.616;5.426;2022-11-21T09:13:57;19.15;;;7.35;;
62419;SDS011;48460;51.616;5.426;2022-11-21T09:16:42;15.77;;;8.93;;
62419;SDS011;48460;51.616;5.426;2022-11-21T09:19:27;21.38;;;7.35;;
62419;SDS011;48460;51.616;5.426;2022-11-21T09:21:53;17.35;;;7.38;;
62419;SDS011;48460;51.616;5.426;2022-11-21T09:24:18;17.52;;;7.78;;
62419;SDS011;48460;51.616;5.426;2022-11-21T09:26:44;14.57;;;6.95;;
62419;SDS011;48460;51.616;5.426;2022-11-21T09:29:09;20.50;;;7.53;;
62419;SDS011;48460;51.616;5.426;2022-11-21T09:31:42;19.33;;;7.43;;
62419;SDS011;48460;51.616;5.426;2022-11-21T09:34:09;23.92;;;7.75;;
62419;SDS011;48460;51.616;5.426;2022-11-21T09:36:34;17.25;;;6.13;;
62419;SDS011;48460;51.616;5.426;2022-11-21T09:39:00;19.90;;;6.43;;
62419;SDS011;48460;51.616;5.426;2022-11-21T09:44:45;11.65;;;5.90;;
62419;SDS011;48460;51.616;5.426;2022-11-21T09:47:28;14.77;;;5.90;;
62419;SDS011;48460;51.616;5.426;2022-11-21T09:50:00;18.60;;;6.70;;
62419;SDS011;48460;51.616;5.426;2022-11-21T09:52:33;14.20;;;5.10;;
62419;SDS011;48460;51.616;5.426;2022-11-21T09:57:53;16.58;;;5.50;;
62419;SDS011;48460;51.616;5.426;2022-11-21T10:00:20;13.43;;;5.75;;
62419;SDS011;48460;51.616;5.426;2022-11-21T10:02:48;12.07;;;5.55;;
62419;SDS011;48460;51.616;5.426;2022-11-21T10:05:18;17.95;;;5.78;;
62419;SDS011;48460;51.616;5.426;2022-11-21T10:08:00;14.60;;;5.43;;
62419;SDS011;48460;51.616;5.426;2022-11-21T10:10:52;14.18;;;5.13;;
62419;SDS011;48460;51.616;5.426;2022-11-21T10:13:43;11.93;;;4.57;;
62419;SDS011;48460;51.616;5.426;2022-11-21T10:16:23;14.18;;;4.80;;
62419;SDS011;48460;51.616;5.426;2022-11-21T10:19:03;16.30;;;5.55;;
62419;SDS011;48460;51.616;5.426;2022-11-21T10:24:21;12.18;;;4.90;;
62419;SDS011;48460;51.616;5.426;2022-11-21T10:27:13;14.57;;;5.13;;
62419;SDS011;48460;51.616;5.426;2022-11-21T10:30:05;13.45;;;4.85;;
62419;SDS011;48460;51.616;5.426;2022-11-21T10:32:49;10.80;;;4.85;;
62419;SDS011;48460;51.616;5.426;2022-11-21T10:35:28;13.05;;;4.43;;
62419;SDS011;48460;51.616;5.426;2022-11-21T10:38:00;12.23;;;4.25;;
62419;SDS011;48460;51.616;5.426;2022-11-21T10:43:13;15.60;;;4.50;;
62419;SDS011;48460;51.616;5.426;2022-11-21T10:46:06;14.98;;;4.90;;
62419;SDS011;48460;51.616;5.426;2022-11-21T10:48:31;12.75;;;4.63;;
62419;SDS011;48460;51.616;5.426;2022-11-21T10:53:38;13.32;;;4.30;;
62419;SDS011;48460;51.616;5.426;2022-11-21T10:56:23;9.52;;;4.55;;
62419;SDS011;48460;51.616;5.426;2022-11-21T10:58:54;14.18;;;5.00;;
62419;SDS011;48460;51.616;5.426;2022-11-21T11:04:15;17.58;;;4.47;;
62419;SDS011;48460;51.616;5.426;2022-11-21T11:06:54;18.33;;;4.28;;
62419;SDS011;48460;51.616;5.426;2022-11-21T11:09:31;12.30;;;4.18;;
62419;SDS011;48460;51.616;5.426;2022-11-21T11:14:50;13.38;;;3.75;;
62419;SDS011;48460;51.616;5.426;2022-11-21T11:17:25;9.98;;;3.58;;
62419;SDS011;48460;51.616;5.426;2022-11-21T11:20:06;11.25;;;3.83;;
62419;SDS011;48460;51.616;5.426;2022-11-21T11:22:54;9.07;;;3.67;;
62419;SDS011;48460;51.616;5.426;2022-11-21T11:25:24;10.13;;;3.47;;
62419;SDS011;48460;51.616;5.426;2022-11-21T11:27:50;8.98;;;3.10;;
62419;SDS011;48460;51.616;5.426;2022-11-21T11:30:26;9.95;;;3.08;;
62419;SDS011;48460;51.616;5.426;2022-11-21T11:33:02;13.07;;;3.33;;
62419;SDS011;48460;51.616;5.426;2022-11-21T11:35:31;12.68;;;3.28;;
62419;SDS011;48460;51.616;5.426;2022-11-21T11:38:00;7.78;;;3.20;;
62419;SDS011;48460;51.616;5.426;2022-11-21T11:40:30;10.35;;;3.13;;
62419;SDS011;48460;51.616;5.426;2022-11-21T11:49:39;9.90;;;2.90;;
62419;SDS011;48460;51.616;5.426;2022-11-21T11:55:35;11.45;;;3.00;;
62419;SDS011;48460;51.616;5.426;2022-11-21T11:58:10;13.25;;;3.55;;
62419;SDS011;48460;51.616;5.426;2022-11-21T12:00:51;14.85;;;3.40;;
62419;SDS011;48460;51.616;5.426;2022-11-21T12:03:40;10.82;;;3.25;;
62419;SDS011;48460;51.616;5.426;2022-11-21T12:08:54;13.82;;;3.25;;
62419;SDS011;48460;51.616;5.426;2022-11-21T12:17:46;12.88;;;3.03;;
62419;SDS011;48460;51.616;5.426;2022-11-21T12:20:29;14.35;;;3.17;;
62419;SDS011;48460;51.616;5.426;2022-11-21T12:23:04;9.95;;;3.42;;
62419;SDS011;48460;51.616;5.426;2022-11-21T12:25:32;14.50;;;3.20;;
62419;SDS011;48460;51.616;5.426;2022-11-21T12:28:08;11.75;;;3.33;;
62419;SDS011;48460;51.616;5.426;2022-11-21T12:30:49;8.90;;;3.00;;
62419;SDS011;48460;51.616;5.426;2022-11-21T12:33:23;9.32;;;3.08;;
62419;SDS011;48460;51.616;5.426;2022-11-21T12:35:56;11.80;;;3.00;;
62419;SDS011;48460;51.616;5.426;2022-11-21T12:44:27;10.82;;;2.80;;
62419;SDS011;48460;51.616;5.426;2022-11-21T12:53:05;12.55;;;2.85;;
62419;SDS011;48460;51.616;5.426;2022-11-21T12:56:13;11.23;;;3.10;;
62419;SDS011;48460;51.616;5.426;2022-11-21T12:58:54;10.77;;;3.58;;
62419;SDS011;48460;51.616;5.426;2022-11-21T13:01:30;13.30;;;3.30;;
62419;SDS011;48460;51.616;5.426;2022-11-21T13:04:19;11.52;;;2.83;;
62419;SDS011;48460;51.616;5.426;2022-11-21T13:07:02;10.18;;;2.97;;
62419;SDS011;48460;51.616;5.426;2022-11-21T13:09:30;9.00;;;2.90;;
62419;SDS011;48460;51.616;5.426;2022-11-21T13:12:08;10.35;;;3.20;;
62419;SDS011;48460;51.616;5.426;2022-11-21T13:14:47;9.85;;;2.97;;
62419;SDS011;48460;51.616;5.426;2022-11-21T13:31:03;10.23;;;2.92;;
62419;SDS011;48460;51.616;5.426;2022-11-21T13:33:50;10.27;;;3.20;;
62419;SDS011;48460;51.616;5.426;2022-11-21T13:55:58;9.70;;;3.08;;
62419;SDS011;48460;51.616;5.426;2022-11-21T14:06:47;9.60;;;2.83;;
62419;SDS011;48460;51.616;5.426;2022-11-21T14:15:10;10.38;;;3.33;;
62419;SDS011;48460;51.616;5.426;2022-11-21T14:22:42;13.07;;;3.90;;
62419;SDS011;48460;51.616;5.426;2022-11-21T14:25:34;9.95;;;3.25;;
62419;SDS011;48460;51.616;5.426;2022-11-21T14:28:00;12.90;;;3.40;;
62419;SDS011;48460;51.616;5.426;2022-11-21T14:30:35;11.95;;;3.38;;
62419;SDS011;48460;51.616;5.426;2022-11-21T14:38:44;8.90;;;3.28;;
62419;SDS011;48460;51.616;5.426;2022-11-21T14:46:21;10.65;;;3.30;;
62419;SDS011;48460;51.616;5.426;2022-11-21T14:48:48;12.45;;;3.80;;
62419;SDS011;48460;51.616;5.426;2022-11-21T14:51:14;14.15;;;3.58;;
62419;SDS011;48460;51.616;5.426;2022-11-21T14:53:42;10.82;;;3.25;;
62419;SDS011;48460;51.616;5.426;2022-11-21T14:56:11;14.55;;;4.05;;
62419;SDS011;48460;51.616;5.426;2022-11-21T15:01:30;12.60;;;3.55;;
62419;SDS011;48460;51.616;5.426;2022-11-21T15:04:01;9.27;;;3.80;;
62419;SDS011;48460;51.616;5.426;2022-11-21T15:06:42;15.60;;;3.90;;
62419;SDS011;48460;51.616;5.426;2022-11-21T15:09:13;13.63;;;3.95;;
62419;SDS011;48460;51.616;5.426;2022-11-21T15:11:41;8.80;;;3.45;;
62419;SDS011;48460;51.616;5.426;2022-11-21T15:14:20;13.55;;;4.00;;
62419;SDS011;48460;51.616;5.426;2022-11-21T15:17:06;11.60;;;4.05;;
62419;SDS011;48460;51.616;5.426;2022-11-21T15:22:01;13.85;;;4.03;;
62419;SDS011;48460;51.616;5.426;2022-11-21T15:24:30;13.63;;;4.35;;
62419;SDS011;48460;51.616;5.426;2022-11-21T15:35:42;15.07;;;3.80;;
62419;SDS011;48460;51.616;5.426;2022-11-21T15:48:46;13.55;;;3.72;;
62419;SDS011;48460;51.616;5.426;2022-11-21T15:51:13;8.52;;;3.80;;
62419;SDS011;48460;51.616;5.426;2022-11-21T15:53:40;10.80;;;3.60;;
62419;SDS011;48460;51.616;5.426;2022-11-21T15:56:05;13.75;;;3.90;;
62419;SDS011;48460;51.616;5.426;2022-11-21T15:58:31;12.05;;;3.72;;
62419;SDS011;48460;51.616;5.426;2022-11-21T16:00:56;9.95;;;3.40;;
62419;SDS011;48460;51.616;5.426;2022-11-21T16:03:23;15.05;;;4.63;;
62419;SDS011;48460;51.616;5.426;2022-11-21T16:05:49;12.13;;;3.90;;
62419;SDS011;48460;51.616;5.426;2022-11-21T16:08:14;8.77;;;3.50;;
62419;SDS011;48460;51.616;5.426;2022-11-21T16:10:39;12.95;;;3.50;;
62419;SDS011;48460;51.616;5.426;2022-11-21T16:13:05;11.85;;;3.28;;
62419;SDS011;48460;51.616;5.426;2022-11-21T16:15:30;13.82;;;3.50;;
62419;SDS011;48460;51.616;5.426;2022-11-21T16:17:56;9.98;;;3.20;;
62419;SDS011;48460;51.616;5.426;2022-11-21T16:20:21;12.25;;;3.30;;
62419;SDS011;48460;51.616;5.426;2022-11-21T16:22:47;13.77;;;3.28;;
62419;SDS011;48460;51.616;5.426;2022-11-21T16:25:12;9.18;;;3.28;;
62419;SDS011;48460;51.616;5.426;2022-11-21T16:27:37;11.70;;;3.47;;
62419;SDS011;48460;51.616;5.426;2022-11-21T16:30:03;12.23;;;3.60;;
62419;SDS011;48460;51.616;5.426;2022-11-21T16:32:29;13.88;;;3.42;;
62419;SDS011;48460;51.616;5.426;2022-11-21T16:34:54;11.40;;;3.58;;
62419;SDS011;48460;51.616;5.426;2022-11-21T16:37:22;15.10;;;3.50;;
62419;SDS011;48460;51.616;5.426;2022-11-21T16:39:47;14.65;;;3.92;;
62419;SDS011;48460;51.616;5.426;2022-11-21T16:42:16;10.60;;;3.10;;
62419;SDS011;48460;51.616;5.426;2022-11-21T16:44:43;13.15;;;3.75;;
62419;SDS011;48460;51.616;5.426;2022-11-21T16:47:16;12.20;;;3.40;;
62419;SDS011;48460;51.616;5.426;2022-11-21T16:49:45;8.63;;;3.28;;
62419;SDS011;48460;51.616;5.426;2022-11-21T16:52:11;10.25;;;3.72;;
62419;SDS011;48460;51.616;5.426;2022-11-21T16:54:37;11.98;;;3.55;;
62419;SDS011;48460;51.616;5.426;2022-11-21T16:57:03;10.93;;;3.85;;
62419;SDS011;48460;51.616;5.426;2022-11-21T16:59:29;8.23;;;3.17;;